createdAt,value
2023-02-06T00:01:19.872Z,102634.56
2023-02-06T00:03:47.142Z,102637.50
2023-02-06T00:06:14.626Z,102627.09
2023-02-06T00:08:42.143Z,102621.47
2023-02-06T00:11:10.495Z,102621.09
2023-02-06T00:13:38.125Z,102612.91
2023-02-06T00:16:05.754Z,102625.44
2023-02-06T00:18:34.344Z,102623.13
2023-02-06T00:21:01.618Z,102630.50
2023-02-06T00:23:28.856Z,102632.06
2023-02-06T00:25:56.117Z,102644.75
2023-02-06T00:28:23.389Z,102638.22
2023-02-06T00:30:50.751Z,102635.91
2023-02-06T00:33:19.013Z,102634.00
2023-02-06T00:35:48.978Z,102636.25
2023-02-06T00:38:16.384Z,102631.22
2023-02-06T00:40:44.735Z,102624.66
2023-02-06T00:43:12.006Z,102628.13
2023-02-06T00:45:39.242Z,102623.47
2023-02-06T00:48:06.714Z,102632.47
2023-02-06T00:50:34.259Z,102630.06
2023-02-06T00:53:02.817Z,102637.50
2023-02-06T00:55:30.059Z,102629.41
2023-02-06T00:57:57.328Z,102617.31
2023-02-06T01:00:24.648Z,102621.69
2023-02-06T01:02:51.923Z,102626.78
2023-02-06T01:05:19.260Z,102630.38
2023-02-06T01:07:46.525Z,102633.19
2023-02-06T01:10:15.201Z,102637.19
2023-02-06T01:12:42.893Z,102633.66
2023-02-06T01:15:11.737Z,102636.53
2023-02-06T01:17:39.510Z,102634.44
2023-02-06T01:20:07.763Z,102630.31
2023-02-06T01:22:35.953Z,102618.94
2023-02-06T01:25:03.707Z,102621.28
2023-02-06T01:27:32.346Z,102623.47
2023-02-06T01:29:59.587Z,102614.09
2023-02-06T01:32:26.838Z,102603.88
2023-02-06T01:34:54.176Z,102614.78
2023-02-06T01:37:21.455Z,102617.91
2023-02-06T01:39:48.709Z,102614.13
2023-02-06T01:42:15.957Z,102620.97
2023-02-06T01:44:44.593Z,102617.72
2023-02-06T01:47:11.883Z,102623.75
2023-02-06T01:49:40.536Z,102628.75
2023-02-06T01:52:10.650Z,102638.28
2023-02-06T01:54:38.317Z,102644.31
2023-02-06T01:57:06.978Z,102649.56
2023-02-06T01:59:34.781Z,102650.38
2023-02-06T02:02:03.527Z,102642.66
2023-02-06T02:04:32.819Z,102651.66
2023-02-06T02:07:03.718Z,102651.44
2023-02-06T02:09:31.027Z,102649.06
2023-02-06T02:11:58.379Z,102654.09
2023-02-06T02:14:25.857Z,102649.56
2023-02-06T02:16:58.055Z,102638.81
2023-02-06T02:19:40.690Z,102636.66
2023-02-06T02:22:34.909Z,102624.41
2023-02-06T02:25:23.108Z,102628.34
2023-02-06T02:28:05.890Z,102623.44
2023-02-06T02:30:52.255Z,102621.56
2023-02-06T02:33:27.491Z,102614.38
2023-02-06T02:35:57.764Z,102614.59
2023-02-06T02:38:28.480Z,102603.00
2023-02-06T02:40:57.997Z,102603.25
2023-02-06T02:43:30.609Z,102595.69
2023-02-06T02:46:00.168Z,102585.31
2023-02-06T02:48:29.134Z,102578.53
2023-02-06T02:50:58.830Z,102573.31
2023-02-06T02:53:26.470Z,102573.63
2023-02-06T02:55:53.733Z,102570.03
2023-02-06T02:58:23.953Z,102570.63
2023-02-06T03:00:55.542Z,102575.22
2023-02-06T03:03:24.159Z,102562.59
2023-02-06T03:05:58.074Z,102572.88
2023-02-06T03:08:29.415Z,102567.09
2023-02-06T03:11:04.200Z,102549.28
2023-02-06T03:13:33.021Z,102550.53
2023-02-06T03:16:03.477Z,102558.94
2023-02-06T03:18:34.867Z,102558.63
2023-02-06T03:21:04.064Z,102554.09
2023-02-06T03:23:36.188Z,102558.88
2023-02-06T03:26:06.700Z,102550.97
2023-02-06T03:28:35.258Z,102548.75
2023-02-06T03:31:04.470Z,102545.13
2023-02-06T03:33:33.193Z,102542.22
2023-02-06T03:36:00.553Z,102547.22
2023-02-06T03:38:28.504Z,102554.25
2023-02-06T03:40:58.840Z,102554.78
2023-02-06T03:43:27.669Z,102556.78
2023-02-06T03:45:58.099Z,102566.25
2023-02-06T03:48:28.386Z,102572.03
2023-02-06T03:50:56.406Z,102563.63
2023-02-06T03:53:25.331Z,102562.16
2023-02-06T03:55:55.270Z,102570.75
2023-02-06T03:58:24.689Z,102562.41
2023-02-06T04:00:52.704Z,102558.94
2023-02-06T04:03:21.491Z,102546.38
2023-02-06T04:05:48.762Z,102545.78
2023-02-06T04:08:16.007Z,102555.97
2023-02-06T04:10:43.260Z,102563.44
2023-02-06T04:13:10.505Z,102569.59
2023-02-06T04:15:39.075Z,102545.53
2023-02-06T04:18:06.385Z,102540.72
2023-02-06T04:20:33.742Z,102549.25
2023-02-06T04:23:01.121Z,102543.72
2023-02-06T04:25:28.452Z,102545.72
2023-02-06T04:27:55.720Z,102541.47
2023-02-06T04:30:23.001Z,102541.56
2023-02-06T04:32:51.617Z,102548.59
2023-02-06T04:35:18.980Z,102561.63
2023-02-06T04:37:46.554Z,102559.94
2023-02-06T04:40:13.842Z,102550.47
2023-02-06T04:42:41.082Z,102549.00
2023-02-06T04:45:08.880Z,102542.09
2023-02-06T04:47:36.122Z,102551.75
2023-02-06T04:50:04.821Z,102571.44
2023-02-06T04:52:32.110Z,102568.75
2023-02-06T04:54:59.393Z,102576.47
2023-02-06T04:57:26.754Z,102574.31
2023-02-06T04:59:54.028Z,102582.03
2023-02-06T05:02:21.313Z,102588.28
2023-02-06T05:04:48.556Z,102587.91
2023-02-06T05:07:17.154Z,102584.09
2023-02-06T05:09:44.426Z,102581.41
2023-02-06T05:12:13.973Z,102591.97
2023-02-06T05:14:41.570Z,102590.13
2023-02-06T05:17:08.818Z,102569.44
2023-02-06T05:19:36.154Z,102566.88
2023-02-06T05:22:03.432Z,102560.03
2023-02-06T05:24:32.048Z,102544.22
2023-02-06T05:26:59.381Z,102546.09
2023-02-06T05:29:27.200Z,102556.47
2023-02-06T05:31:54.537Z,102562.94
2023-02-06T05:34:21.840Z,102563.94
2023-02-06T05:36:49.093Z,102560.38
2023-02-06T05:39:16.352Z,102566.69
2023-02-06T05:41:44.950Z,102571.63
2023-02-06T05:44:12.264Z,102573.78
2023-02-06T05:46:39.563Z,102565.63
2023-02-06T05:49:06.990Z,102568.66
2023-02-06T05:51:34.321Z,102565.22
2023-02-06T05:54:01.674Z,102573.22
2023-02-06T05:56:28.933Z,102565.16
2023-02-06T05:58:57.504Z,102579.13
2023-02-06T06:01:24.756Z,102568.03
2023-02-06T06:03:52.366Z,102559.22
2023-02-06T06:06:19.654Z,102552.63
2023-02-06T06:08:46.898Z,102544.75
2023-02-06T06:11:14.140Z,102548.44
2023-02-06T06:13:41.418Z,102554.72
2023-02-06T06:16:10.068Z,102544.00
2023-02-06T06:18:37.394Z,102548.44
2023-02-06T06:21:04.828Z,102541.53
2023-02-06T06:23:32.105Z,102539.09
2023-02-06T06:25:59.378Z,102532.06
2023-02-06T06:28:26.646Z,102543.47
2023-02-06T06:31:00.956Z,102546.56
2023-02-06T06:33:29.579Z,102549.56
2023-02-06T06:35:56.850Z,102553.97
2023-02-06T06:38:24.210Z,102554.00
2023-02-06T06:40:51.750Z,102558.44
2023-02-06T06:43:19.213Z,102556.59
2023-02-06T06:45:46.513Z,102549.09
2023-02-06T06:48:13.852Z,102548.56
2023-02-06T06:50:42.445Z,102549.34
2023-02-06T06:53:09.704Z,102547.59
2023-02-06T06:55:37.248Z,102554.09
2023-02-06T06:58:04.699Z,102546.25
2023-02-06T07:00:32.241Z,102540.91
2023-02-06T07:02:59.943Z,102541.72
2023-02-06T07:05:27.377Z,102540.13
2023-02-06T07:07:55.948Z,102548.19
2023-02-06T07:10:23.253Z,102551.66
2023-02-06T07:12:53.377Z,102553.22
2023-02-06T07:15:21.172Z,102544.81
2023-02-06T07:17:48.456Z,102539.75
2023-02-06T07:20:15.930Z,102547.56
2023-02-06T07:22:43.202Z,102550.25
2023-02-06T07:25:12.128Z,102548.59
2023-02-06T07:27:39.406Z,102542.56
2023-02-06T07:30:07.107Z,102540.91
2023-02-06T07:32:35.173Z,102536.53
2023-02-06T07:35:02.444Z,102526.78
2023-02-06T07:37:29.731Z,102527.06
2023-02-06T07:39:56.982Z,102515.81
2023-02-06T07:42:25.910Z,102520.34
2023-02-06T07:44:53.178Z,102524.94
2023-02-06T07:47:20.465Z,102527.47
2023-02-06T07:49:47.727Z,102528.38
2023-02-06T07:52:15.917Z,102525.91
2023-02-06T07:54:43.198Z,102528.81
2023-02-06T07:57:10.485Z,102536.88
2023-02-06T07:59:39.057Z,102535.09
2023-02-06T08:02:06.320Z,102538.00
2023-02-06T08:04:35.538Z,102545.13
2023-02-06T08:07:02.890Z,102550.25
2023-02-06T08:09:30.196Z,102540.91
2023-02-06T08:11:57.855Z,102540.84
2023-02-06T08:14:25.140Z,102549.56
2023-02-06T08:16:53.757Z,102548.88
2023-02-06T08:19:21.096Z,102550.44
2023-02-06T08:21:48.437Z,102549.59
2023-02-06T08:24:15.696Z,102545.44
2023-02-06T08:26:43.737Z,102545.53
2023-02-06T08:29:11.131Z,102544.75
2023-02-06T08:31:39.637Z,102547.28
2023-02-06T08:34:09.260Z,102534.88
2023-02-06T08:36:36.677Z,102545.44
2023-02-06T08:39:04.867Z,102542.13
2023-02-06T08:41:33.584Z,102536.06
2023-02-06T08:44:02.149Z,102530.91
2023-02-06T08:46:30.652Z,102528.25
2023-02-06T08:48:59.143Z,102530.94
2023-02-06T08:51:28.666Z,102515.19
2023-02-06T08:53:57.126Z,102520.53
2023-02-06T08:56:24.452Z,102511.88
2023-02-06T08:58:51.918Z,102500.53
2023-02-06T09:01:19.251Z,102505.81
2023-02-06T09:03:46.591Z,102506.75
2023-02-06T09:06:14.348Z,102506.84
2023-02-06T09:08:43.291Z,102504.31
2023-02-06T09:11:11.089Z,102495.53
2023-02-06T09:13:38.509Z,102487.53
2023-02-06T09:16:06.833Z,102488.56
2023-02-06T09:18:34.283Z,102495.59
2023-02-06T09:21:08.301Z,102492.22
2023-02-06T09:23:35.874Z,102499.22
2023-02-06T09:26:04.935Z,102502.78
2023-02-06T09:28:32.452Z,102503.69
2023-02-06T09:30:59.827Z,102499.38
2023-02-06T09:33:27.244Z,102495.88
2023-02-06T09:36:02.253Z,102497.69
2023-02-06T09:38:29.535Z,102502.19
2023-02-06T09:40:57.146Z,102511.03
2023-02-06T09:43:26.050Z,102516.34
2023-02-06T09:45:55.999Z,102520.69
2023-02-06T09:48:24.598Z,102510.19
2023-02-06T09:50:55.622Z,102511.06
2023-02-06T09:53:26.040Z,102520.78
2023-02-06T09:55:56.411Z,102514.63
2023-02-06T09:58:27.585Z,102504.22
2023-02-06T10:00:59.378Z,102506.88
2023-02-06T10:03:35.609Z,102501.63
2023-02-06T10:06:09.803Z,102489.41
2023-02-06T10:08:38.936Z,102480.69
2023-02-06T10:11:10.629Z,102480.69
2023-02-06T10:13:39.938Z,102472.81
2023-02-06T10:16:12.098Z,102468.59
2023-02-06T10:18:42.652Z,102469.53
2023-02-06T10:21:14.592Z,102474.69
2023-02-06T10:23:45.081Z,102480.97
2023-02-06T10:26:17.328Z,102487.22
2023-02-06T10:28:45.311Z,102483.78
2023-02-06T10:31:32.624Z,102470.56
2023-02-06T10:34:13.145Z,102457.38
2023-02-06T10:36:46.468Z,102458.31
2023-02-06T10:39:34.835Z,102469.66
2023-02-06T10:42:06.765Z,102467.97
2023-02-06T10:44:38.283Z,102468.97
2023-02-06T10:47:15.602Z,102472.50
2023-02-06T10:49:46.333Z,102477.78
2023-02-06T10:52:17.245Z,102486.63
2023-02-06T10:54:50.113Z,102497.19
2023-02-06T10:57:19.548Z,102496.31
2023-02-06T10:59:48.441Z,102505.09
2023-02-06T11:02:22.690Z,102496.28
2023-02-06T11:04:52.770Z,102498.88
2023-02-06T11:07:25.169Z,102485.66
2023-02-06T11:09:52.740Z,102475.13
2023-02-06T11:12:29.818Z,102465.34
2023-02-06T11:14:59.636Z,102463.66
2023-02-06T11:17:29.149Z,102453.16
2023-02-06T11:20:01.668Z,102444.25
2023-02-06T11:22:30.237Z,102437.28
2023-02-06T11:25:02.246Z,102431.22
2023-02-06T11:27:29.702Z,102433.88
2023-02-06T11:29:58.651Z,102437.41
2023-02-06T11:32:30.447Z,102442.75
2023-02-06T11:34:59.902Z,102447.19
2023-02-06T11:37:32.415Z,102446.34
2023-02-06T11:40:15.400Z,102446.38
2023-02-06T11:42:42.656Z,102457.81
2023-02-06T11:45:24.204Z,102445.50
2023-02-06T11:47:52.920Z,102449.03
2023-02-06T11:50:23.605Z,102443.69
2023-02-06T11:52:55.713Z,102445.47
2023-02-06T11:55:23.838Z,102447.25
2023-02-06T11:58:02.317Z,102447.22
2023-02-06T12:00:30.389Z,102444.59
2023-02-06T12:02:59.220Z,102441.03
2023-02-06T12:05:29.235Z,102449.00
2023-02-06T12:08:00.034Z,102446.31
2023-02-06T12:10:28.066Z,102437.50
2023-02-06T12:12:57.893Z,102440.19
2023-02-06T12:15:45.465Z,102444.63
2023-02-06T12:18:17.612Z,102434.94
2023-02-06T12:20:48.863Z,102437.56
2023-02-06T12:23:19.240Z,102434.03
2023-02-06T12:25:49.262Z,102441.06
2023-02-06T12:28:18.111Z,102442.88
2023-02-06T12:30:48.421Z,102442.03
2023-02-06T12:33:18.853Z,102436.75
2023-02-06T12:35:49.656Z,102436.75
2023-02-06T12:38:22.581Z,102439.38
2023-02-06T12:40:52.873Z,102428.75
2023-02-06T12:43:20.626Z,102433.19
2023-02-06T12:45:50.835Z,102438.50
2023-02-06T12:48:21.339Z,102436.75
2023-02-06T12:50:52.520Z,102434.09
2023-02-06T12:53:21.056Z,102436.75
2023-02-06T12:55:50.867Z,102429.69
2023-02-06T12:58:23.864Z,102427.06
2023-02-06T13:01:00.785Z,102420.00
2023-02-06T13:03:33.885Z,102419.06
2023-02-06T13:06:03.498Z,102420.88
2023-02-06T13:08:38.948Z,102409.41
2023-02-06T13:11:07.757Z,102410.28
2023-02-06T13:13:36.669Z,102409.38
2023-02-06T13:16:05.396Z,102407.63
2023-02-06T13:18:52.528Z,102393.50
2023-02-06T13:21:21.401Z,102396.16
2023-02-06T13:24:06.168Z,102404.13
2023-02-06T13:26:57.473Z,102404.97
2023-02-06T13:29:26.075Z,102398.81
2023-02-06T13:32:08.452Z,102399.72
2023-02-06T13:34:37.586Z,102403.25
2023-02-06T13:37:20.540Z,102397.03
2023-02-06T13:39:48.569Z,102400.59
2023-02-06T13:42:30.848Z,102412.91
2023-02-06T13:45:00.710Z,102412.94
2023-02-06T13:47:46.623Z,102420.88
2023-02-06T13:50:31.709Z,102420.88
2023-02-06T13:53:13.933Z,102429.69
2023-02-06T13:55:48.907Z,102427.06
2023-02-06T13:58:35.054Z,102424.41
2023-02-06T14:01:02.708Z,102439.41
2023-02-06T14:03:31.356Z,102444.69
2023-02-06T14:06:03.882Z,102436.75
2023-02-06T14:08:37.998Z,102444.69
2023-02-06T14:11:42.796Z,102448.22
2023-02-06T14:14:17.663Z,102445.56
2023-02-06T14:16:50.395Z,102450.88
2023-02-06T14:19:23.757Z,102444.69
2023-02-06T14:21:55.105Z,102457.03
2023-02-06T14:24:33.239Z,102453.47
2023-02-06T14:27:07.700Z,102449.06
2023-02-06T14:29:40.249Z,102460.56
2023-02-06T14:32:16.644Z,102455.22
2023-02-06T14:34:52.461Z,102454.31
2023-02-06T14:37:36.661Z,102447.28
2023-02-06T14:40:04.795Z,102458.72
2023-02-06T14:42:36.426Z,102455.19
2023-02-06T14:45:06.167Z,102471.06
2023-02-06T14:47:39.921Z,102466.63
2023-02-06T14:50:08.542Z,102466.69
2023-02-06T14:52:36.348Z,102471.06
2023-02-06T14:55:22.593Z,102478.09
2023-02-06T14:57:51.269Z,102471.97
2023-02-06T15:00:19.933Z,102471.94
2023-02-06T15:02:47.208Z,102472.72
2023-02-06T15:05:24.157Z,102483.25
2023-02-06T15:07:58.044Z,102487.69
2023-02-06T15:10:28.274Z,102481.53
2023-02-06T15:12:57.091Z,102490.38
2023-02-06T15:15:25.359Z,102503.56
2023-02-06T15:18:02.429Z,102513.16
2023-02-06T15:20:32.347Z,102516.66
2023-02-06T15:23:16.653Z,102524.63
2023-02-06T15:25:50.769Z,102535.28
2023-02-06T15:28:21.064Z,102536.03
2023-02-06T15:30:53.297Z,102543.16
2023-02-06T15:33:23.496Z,102544.94
2023-02-06T15:35:52.974Z,102545.84
2023-02-06T15:38:21.068Z,102551.91
2023-02-06T15:40:50.075Z,102559.00
2023-02-06T15:43:20.495Z,102566.94
2023-02-06T15:45:48.505Z,102562.47
2023-02-06T15:48:18.623Z,102565.84
2023-02-06T15:50:55.782Z,102571.13
2023-02-06T15:53:29.516Z,102583.47
2023-02-06T15:56:01.032Z,102580.00
2023-02-06T15:58:31.115Z,102588.81
2023-02-06T16:00:58.790Z,102584.41
2023-02-06T16:03:28.013Z,102589.66
2023-02-06T16:05:56.436Z,102601.78
2023-02-06T16:08:25.378Z,102604.47
2023-02-06T16:10:53.807Z,102606.19
2023-02-06T16:13:24.199Z,102608.81
2023-02-06T16:16:07.319Z,102617.63
2023-02-06T16:18:35.887Z,102612.34
2023-02-06T16:21:14.669Z,102622.84
2023-02-06T16:23:45.721Z,102620.13
2023-02-06T16:26:15.851Z,102615.75
2023-02-06T16:28:47.061Z,102621.94
2023-02-06T16:31:15.858Z,102615.91
2023-02-06T16:33:45.179Z,102618.66
2023-02-06T16:36:13.660Z,102617.69
2023-02-06T16:38:43.155Z,102613.13
2023-02-06T16:41:28.295Z,102611.28
2023-02-06T16:43:55.860Z,102607.34
2023-02-06T16:46:24.567Z,102607.59
2023-02-06T16:48:52.013Z,102607.50
2023-02-06T16:51:20.429Z,102607.34
2023-02-06T16:53:48.899Z,102613.97
2023-02-06T16:56:16.826Z,102617.66
2023-02-06T16:58:44.373Z,102622.03
2023-02-06T17:01:16.110Z,102629.25
2023-02-06T17:03:44.711Z,102636.38
2023-02-06T17:06:14.874Z,102642.44
2023-02-06T17:08:42.795Z,102656.16
2023-02-06T17:11:11.100Z,102662.94
2023-02-06T17:13:38.406Z,102660.09
2023-02-06T17:16:05.987Z,102656.91
2023-02-06T17:18:33.607Z,102658.41
2023-02-06T17:21:02.202Z,102660.31
2023-02-06T17:23:29.455Z,102651.03
2023-02-06T17:25:56.821Z,102661.31
2023-02-06T17:28:24.089Z,102661.53
2023-02-06T17:30:52.081Z,102660.00
2023-02-06T17:33:19.673Z,102657.69
2023-02-06T17:35:47.359Z,102661.53
2023-02-06T17:38:17.053Z,102672.56
2023-02-06T17:40:44.499Z,102675.44
2023-02-06T17:43:11.764Z,102675.38
2023-02-06T17:45:39.754Z,102683.63
2023-02-06T17:48:07.517Z,102681.50
2023-02-06T17:50:36.873Z,102681.47
2023-02-06T17:53:05.812Z,102684.91
2023-02-06T17:55:35.633Z,102687.53
2023-02-06T17:58:03.308Z,102683.38
2023-02-06T18:00:30.593Z,102679.13
2023-02-06T18:02:59.577Z,102682.47
2023-02-06T18:05:27.442Z,102686.19
2023-02-06T18:07:54.722Z,102688.16
2023-02-06T18:10:22.737Z,102679.59
2023-02-06T18:12:51.336Z,102679.97
2023-02-06T18:15:18.704Z,102677.47
2023-02-06T18:17:45.982Z,102676.97
2023-02-06T18:20:13.685Z,102691.41
2023-02-06T18:22:42.044Z,102699.59
2023-02-06T18:25:13.959Z,102701.06
2023-02-06T18:27:41.734Z,102709.88
2023-02-06T18:30:11.721Z,102711.16
2023-02-06T18:32:42.961Z,102711.63
2023-02-06T18:35:10.624Z,102700.88
2023-02-06T18:37:38.224Z,102704.47
2023-02-06T18:40:05.826Z,102702.22
2023-02-06T18:42:50.979Z,102709.66
2023-02-06T18:45:20.101Z,102709.03
2023-02-06T18:47:47.525Z,102706.34
2023-02-06T18:50:15.277Z,102700.72
2023-02-06T18:52:42.558Z,102707.03
2023-02-06T18:55:09.928Z,102703.63
2023-02-06T18:57:37.676Z,102706.69
2023-02-06T19:00:06.161Z,102703.25
2023-02-06T19:02:35.309Z,102697.28
2023-02-06T19:05:02.589Z,102696.66
2023-02-06T19:07:29.877Z,102693.28
2023-02-06T19:09:58.399Z,102698.69
2023-02-06T19:12:27.935Z,102691.13
2023-02-06T19:14:55.320Z,102689.53
2023-02-06T19:17:22.685Z,102686.25
2023-02-06T19:19:51.552Z,102684.97
2023-02-06T19:22:18.956Z,102679.63
2023-02-06T19:24:46.233Z,102693.78
2023-02-06T19:27:14.192Z,102700.88
2023-02-06T19:29:41.473Z,102702.44
2023-02-06T19:32:14.021Z,102704.91
2023-02-06T19:34:41.928Z,102709.66
2023-02-06T19:37:11.617Z,102724.13
2023-02-06T19:39:40.446Z,102727.16
2023-02-06T19:42:09.596Z,102717.88
2023-02-06T19:44:37.558Z,102727.63
2023-02-06T19:47:06.225Z,102744.03
2023-02-06T19:49:33.842Z,102766.66
2023-02-06T19:52:05.055Z,102769.66
2023-02-06T19:54:33.987Z,102781.72
2023-02-06T19:57:01.614Z,102780.78
2023-02-06T19:59:29.992Z,102782.03
2023-02-06T20:01:58.672Z,102787.81
2023-02-06T20:04:27.596Z,102781.03
2023-02-06T20:06:55.814Z,102781.13
2023-02-06T20:09:23.766Z,102786.69
2023-02-06T20:11:52.369Z,102790.81
2023-02-06T20:14:20.050Z,102795.81
2023-02-06T20:16:48.851Z,102809.50
2023-02-06T20:19:18.553Z,102818.88
2023-02-06T20:21:47.354Z,102829.28
2023-02-06T20:24:21.280Z,102832.13
2023-02-06T20:26:49.772Z,102832.56
2023-02-06T20:29:20.265Z,102830.75
2023-02-06T20:31:47.762Z,102839.25
2023-02-06T20:34:15.444Z,102836.75
2023-02-06T20:36:43.320Z,102844.59
2023-02-06T20:39:11.678Z,102846.69
2023-02-06T20:41:40.189Z,102849.06
2023-02-06T20:44:08.905Z,102849.75
2023-02-06T20:46:38.555Z,102838.38
2023-02-06T20:49:09.152Z,102845.53
2023-02-06T20:51:36.760Z,102850.66
2023-02-06T20:54:04.856Z,102843.22
2023-02-06T20:56:32.581Z,102857.19
2023-02-06T20:59:01.241Z,102838.56
2023-02-06T21:01:29.766Z,102840.59
2023-02-06T21:03:59.697Z,102836.34
2023-02-06T21:06:28.006Z,102833.50
2023-02-06T21:08:59.791Z,102822.78
2023-02-06T21:11:29.338Z,102820.91
2023-02-06T21:13:57.882Z,102823.75
2023-02-06T21:16:25.438Z,102827.88
2023-02-06T21:18:53.660Z,102827.41
2023-02-06T21:21:22.914Z,102836.44
2023-02-06T21:23:50.501Z,102835.41
2023-02-06T21:26:18.589Z,102832.72
2023-02-06T21:28:46.596Z,102836.25
2023-02-06T21:31:14.917Z,102841.78
2023-02-06T21:33:42.483Z,102837.75
2023-02-06T21:36:10.390Z,102836.34
2023-02-06T21:38:39.507Z,102832.88
2023-02-06T21:41:07.181Z,102838.22
2023-02-06T21:43:34.774Z,102832.66
2023-02-06T21:46:02.220Z,102823.94
2023-02-06T21:48:29.748Z,102842.47
2023-02-06T21:50:57.014Z,102838.41
2023-02-06T21:53:25.475Z,102838.56
2023-02-06T21:55:54.117Z,102838.16
2023-02-06T21:58:21.382Z,102834.22
2023-02-06T22:00:48.654Z,102852.28
2023-02-06T22:03:16.096Z,102839.59
2023-02-06T22:05:43.365Z,102844.13
2023-02-06T22:08:10.631Z,102842.38
2023-02-06T22:10:38.132Z,102838.31
2023-02-06T22:13:06.866Z,102836.16
2023-02-06T22:15:34.599Z,102831.84
2023-02-06T22:18:02.068Z,102834.50
2023-02-06T22:20:29.369Z,102827.94
2023-02-06T22:22:56.663Z,102835.75
2023-02-06T22:25:23.920Z,102844.03
2023-02-06T22:27:51.247Z,102842.38
2023-02-06T22:30:20.093Z,102852.56
2023-02-06T22:32:47.432Z,102843.69
2023-02-06T22:35:14.690Z,102841.88
2023-02-06T22:37:44.456Z,102849.13
2023-02-06T22:40:12.166Z,102843.19
2023-02-06T22:42:39.415Z,102847.66
2023-02-06T22:45:07.353Z,102843.56
2023-02-06T22:47:35.957Z,102831.16
2023-02-06T22:50:03.242Z,102826.06
2023-02-06T22:52:48.261Z,102832.44
2023-02-06T22:55:15.659Z,102848.75
2023-02-06T22:57:42.943Z,102842.50
2023-02-06T23:00:12.057Z,102841.78
2023-02-06T23:02:40.672Z,102850.31
2023-02-06T23:05:09.392Z,102854.34
2023-02-06T23:07:36.854Z,102845.31
2023-02-06T23:10:04.155Z,102842.72
2023-02-06T23:12:31.402Z,102835.00
2023-02-06T23:14:58.674Z,102839.53
2023-02-06T23:17:26.266Z,102839.34
2023-02-06T23:19:54.880Z,102836.97
2023-02-06T23:22:22.156Z,102840.66
2023-02-06T23:24:50.624Z,102846.34
2023-02-06T23:27:19.620Z,102841.50
2023-02-06T23:29:46.923Z,102844.06
2023-02-06T23:32:14.179Z,102857.03
2023-02-06T23:34:41.456Z,102848.63
2023-02-06T23:37:10.045Z,102859.03
2023-02-06T23:39:37.338Z,102857.34
2023-02-06T23:42:04.790Z,102864.06
2023-02-06T23:44:32.355Z,102853.75
2023-02-06T23:46:59.643Z,102871.47
2023-02-06T23:49:26.931Z,102863.00
2023-02-06T23:51:54.216Z,102865.03
2023-02-06T23:54:22.842Z,102859.50
2023-02-06T23:56:50.151Z,102862.50
2023-02-06T23:59:17.431Z,102863.59
